CheckWX is a tool to help pilots better visualize weather data.  It is not intended as a substitute for an official pre-flight weather briefing.

02:10:02 UTC

OERY TAF
Riyadh Air Base Airport
Riyadh, Saudi Arabia
TAF OERY 182300Z 1900/2006 28006KT 7000 FEW040 BECMG 1906/1908 08012KT

Mar-19@
00:00 UTC

Mar-19 @ 00:00 UTC

Mar-19@
06:00 UTC

Mar-19 @ 06:00 UTC

TAF OERY 182300Z 1900/2006 28006KT 7000 FEW040
Wind
  • 280° at 6 KTS
Cloud Levels
  • Few at 4,000' AGL

Mar-19@
06:00 UTC

Mar-19 @ 06:00 UTC

Mar-20@
06:00 UTC

Mar-20 @ 06:00 UTC

BECMG 1906/1908 08012KT

Becoming

Becoming Conditions expected by Tue, Mar 19, 2019 @ 08:00 UTC

Wind
  • 080° at 12 KTS
Cloud Levels
  • Few at 4,000' AGL